Time;durP1;ratioP1;P1;durP2;ratioP2;P2;SDS_P1;SDS_P2;PMS_P1;PMS_P2;Temp;Humidity;BMP_temperature;BMP_pressure;BME280_temperature;BME280_humidity;BME280_pressure;Samples;Min_cycle;Max_cycle;Signal;HPM_P1;HPM_P2
2022/10/09 00:01:19;;;;;;;0.20;0.20;;;;;;;17.03;46.12;95481.63;5032146;28;20522;-67
2022/10/09 00:03:48;;;;;;;1.33;1.30;;;;;;;16.34;47.04;95478.56;5030126;28;20454;-69
2022/10/09 00:06:27;;;;;;;0.23;0.23;;;;;;;16.10;47.73;95482.94;5037610;28;20432;-65
2022/10/09 00:08:54;;;;;;;0.30;0.30;;;;;;;15.40;49.82;95475.41;5039744;28;20458;-71
2022/10/09 00:11:24;;;;;;;1.27;0.70;;;;;;;14.75;50.87;95487.75;5039569;28;20524;-65
2022/10/09 00:13:52;;;;;;;0.40;0.40;;;;;;;14.87;50.84;95482.94;5033865;28;20447;-69
2022/10/09 00:16:21;;;;;;;1.83;1.23;;;;;;;15.12;50.95;95488.19;5036056;28;20941;-69
2022/10/09 00:18:48;;;;;;;0.60;0.60;;;;;;;15.37;50.05;95479.38;5048497;28;20919;-67
2022/10/09 00:21:24;;;;;;;1.23;0.40;;;;;;;15.38;49.76;95482.81;5031531;28;20544;-69
2022/10/09 00:23:53;;;;;;;0.10;0.10;;;;;;;15.73;50.08;95477.38;5038517;28;20483;-70
2022/10/09 00:26:20;;;;;;;0.57;0.57;;;;;;;15.81;49.40;95472.31;5042604;28;20681;-65
2022/10/09 00:28:47;;;;;;;0.87;0.87;;;;;;;15.74;49.19;95471.03;5044681;28;20487;-67
2022/10/09 00:31:15;;;;;;;0.40;0.40;;;;;;;16.10;48.78;95465.25;5039130;28;20510;-68
2022/10/09 00:33:43;;;;;;;0.60;0.60;;;;;;;16.02;48.76;95465.06;5053632;28;20447;-66
2022/10/09 00:36:13;;;;;;;2.00;1.90;;;;;;;16.18;48.35;95454.06;5042308;28;20666;-69
2022/10/09 00:38:40;;;;;;;0.10;0.10;;;;;;;16.09;48.23;95450.44;5045868;28;20847;-66
2022/10/09 00:41:07;;;;;;;0.30;0.30;;;;;;;15.24;50.66;95448.25;5044664;28;20467;-68
2022/10/09 00:43:52;;;;;;;1.13;1.07;;;;;;;15.49;50.25;95450.03;5050779;28;20445;-66
2022/10/09 00:46:24;;;;;;;0.40;0.40;;;;;;;15.92;49.18;95450.03;5041566;28;20489;-64
2022/10/09 00:49:01;;;;;;;1.27;1.17;;;;;;;15.76;49.79;95455.69;5049362;28;20442;-69
2022/10/09 00:51:30;;;;;;;0.60;0.60;;;;;;;15.95;48.71;95422.25;5040641;28;20530;-70
2022/10/09 00:53:58;;;;;;;5.97;2.50;;;;;;;16.14;48.65;95441.69;5049147;28;20513;-65
2022/10/09 00:56:25;;;;;;;3.67;1.37;;;;;;;15.96;48.88;95439.72;5041437;28;20444;-68
2022/10/09 00:58:55;;;;;;;0.47;0.47;;;;;;;16.09;48.90;95449.66;5029793;28;20815;-67
2022/10/09 01:01:21;;;;;;;3.10;2.07;;;;;;;16.28;48.83;95442.63;5042394;28;20487;-65
2022/10/09 01:03:48;;;;;;;0.20;0.20;;;;;;;16.38;47.95;95442.56;5053180;28;20468;-67
2022/10/09 01:06:34;;;;;;;2.43;1.90;;;;;;;16.31;48.31;95442.09;5037625;28;20454;-64
2022/10/09 01:09:06;;;;;;;0.87;0.70;;;;;;;16.18;47.97;95442.72;5031199;28;20516;-70
2022/10/09 01:12:02;;;;;;;1.77;0.70;;;;;;;16.23;48.40;95437.38;5040639;28;20813;-69
2022/10/09 01:14:46;;;;;;;1.50;1.23;;;;;;;16.51;47.50;95441.94;5039815;28;20474;-69
2022/10/09 01:17:27;;;;;;;1.23;0.77;;;;;;;16.19;48.73;95445.06;5040025;28;20472;-65
2022/10/09 01:20:30;;;;;;;1.03;1.03;;;;;;;16.41;47.63;95447.28;5044412;28;20547;-69
2022/10/09 01:23:20;;;;;;;0.10;0.10;;;;;;;16.52;47.13;95443.50;5040520;28;20482;-69
2022/10/09 01:26:06;;;;;;;2.00;1.80;;;;;;;16.29;47.89;95448.72;5043284;28;20454;-66
2022/10/09 01:28:35;;;;;;;0.60;0.60;;;;;;;16.18;47.94;95448.00;5040364;28;21026;-64
2022/10/09 01:31:04;;;;;;;0.30;0.30;;;;;;;16.23;47.76;95445.31;5040617;28;20946;-70
2022/10/09 01:33:32;;;;;;;0.20;0.20;;;;;;;16.31;47.42;95444.72;5039540;28;21027;-71
2022/10/09 01:36:01;;;;;;;1.77;1.47;;;;;;;16.18;47.66;95453.28;5042175;28;20814;-67
2022/10/09 01:38:29;;;;;;;1.00;1.00;;;;;;;16.07;48.03;95443.84;5049205;28;20938;-70
2022/10/09 01:40:57;;;;;;;0.57;0.57;;;;;;;15.83;48.12;95429.75;5040875;28;20849;-66
2022/10/09 01:43:24;;;;;;;0.73;0.73;;;;;;;15.69;48.41;95440.13;5036307;28;20444;-70
2022/10/09 01:45:51;;;;;;;0.63;0.50;;;;;;;15.38;49.90;95449.28;5037263;28;21021;-68
2022/10/09 01:48:24;;;;;;;0.70;0.70;;;;;;;15.12;49.75;95430.13;5044968;28;20442;-66
2022/10/09 01:50:58;;;;;;;0.60;0.60;;;;;;;14.77;51.35;95443.41;5043665;28;20489;-69
2022/10/09 01:53:26;;;;;;;0.10;0.10;;;;;;;14.87;50.79;95455.78;5033554;28;20448;-65
2022/10/09 01:56:05;;;;;;;0.10;0.10;;;;;;;15.05;50.22;95455.22;5036541;28;20465;-69
2022/10/09 01:58:45;;;;;;;1.90;1.70;;;;;;;15.41;50.16;95447.97;5033922;28;20443;-69
2022/10/09 02:01:27;;;;;;;0.63;0.63;;;;;;;15.42;49.52;95444.28;5043650;28;20470;-67
2022/10/09 02:03:57;;;;;;;0.40;0.40;;;;;;;15.23;50.12;95446.69;5029208;28;21058;-68
2022/10/09 02:06:27;;;;;;;0.27;0.27;;;;;;;15.36;49.99;95453.25;5040053;28;20497;-67
2022/10/09 02:08:54;;;;;;;0.53;0.53;;;;;;;15.44;49.63;95456.13;5032805;28;20456;-69
2022/10/09 02:11:26;;;;;;;0.20;0.20;;;;;;;15.55;49.33;95456.84;5038279;28;20452;-70
2022/10/09 02:13:54;;;;;;;0.13;0.13;;;;;;;15.47;49.69;95454.81;5031448;28;20451;-68
2022/10/09 02:16:29;;;;;;;0.40;0.40;;;;;;;15.64;48.63;95463.16;5038445;28;20456;-69
2022/10/09 02:19:09;;;;;;;0.57;0.57;;;;;;;15.63;49.82;95467.66;5031755;28;20455;-65
2022/10/09 02:21:44;;;;;;;0.70;0.53;;;;;;;15.76;48.96;95466.25;5043176;28;20589;-66
2022/10/09 02:24:19;;;;;;;9.90;2.83;;;;;;;15.73;49.53;95472.09;5032471;28;20922;-65
2022/10/09 02:26:46;;;;;;;0.33;0.33;;;;;;;15.57;49.11;95474.03;5034972;28;20510;-67
2022/10/09 02:29:14;;;;;;;0.43;0.43;;;;;;;15.42;50.46;95470.69;5030945;28;20446;-67
2022/10/09 02:31:42;;;;;;;1.33;0.93;;;;;;;15.37;49.95;95470.66;5036125;28;20456;-63
2022/10/09 02:34:12;;;;;;;0.70;0.70;;;;;;;15.46;49.60;95471.69;5029569;28;20472;-68
2022/10/09 02:36:39;;;;;;;0.67;0.67;;;;;;;15.46;50.04;95475.13;5036164;28;20462;-68
2022/10/09 02:39:07;;;;;;;0.20;0.20;;;;;;;15.39;49.77;95476.44;5042274;28;20466;-67
2022/10/09 02:41:34;;;;;;;0.57;0.57;;;;;;;14.90;50.84;95479.00;5039096;28;20566;-71
2022/10/09 02:44:03;;;;;;;0.13;0.13;;;;;;;14.09;53.42;95483.50;5030208;28;20440;-71
2022/10/09 02:46:30;;;;;;;4.93;1.93;;;;;;;13.85;53.63;95477.19;5041473;28;20870;-71
2022/10/09 02:48:57;;;;;;;0.23;0.23;;;;;;;13.78;54.11;95481.88;5031425;28;20483;-67
2022/10/09 02:51:24;;;;;;;0.77;0.77;;;;;;;14.25;52.30;95482.44;5042759;28;20451;-62
2022/10/09 02:53:52;;;;;;;0.10;0.10;;;;;;;14.30;52.19;95469.31;5034470;28;21013;-64
2022/10/09 02:56:21;;;;;;;0.20;0.20;;;;;;;14.59;51.76;95473.00;5041900;28;20490;-69
2022/10/09 02:58:48;;;;;;;0.67;0.67;;;;;;;14.47;51.55;95479.59;5036763;28;20828;-69
2022/10/09 03:01:15;;;;;;;1.27;1.17;;;;;;;14.36;51.11;95484.06;5041592;28;20462;-70
2022/10/09 03:03:42;;;;;;;0.20;0.20;;;;;;;14.39;52.07;95488.81;5031996;28;20450;-69
2022/10/09 03:06:11;;;;;;;1.33;1.23;;;;;;;14.02;51.86;95472.44;5033745;28;20546;-71
2022/10/09 03:08:40;;;;;;;0.27;0.27;;;;;;;13.63;54.04;95495.03;5040364;28;20443;-69
2022/10/09 03:11:08;;;;;;;0.53;0.30;;;;;;;14.28;52.45;95494.34;5029924;28;21007;-64
2022/10/09 03:13:36;;;;;;;4.80;2.10;;;;;;;14.67;51.22;95483.00;5046472;28;20508;-64
2022/10/09 03:16:14;;;;;;;2.43;2.23;;;;;;;14.02;53.04;95499.59;5044533;28;20466;-67
2022/10/09 03:18:42;;;;;;;0.47;0.47;;;;;;;14.45;51.37;95490.38;5039045;28;20450;-68
2022/10/09 03:21:13;;;;;;;0.13;0.13;;;;;;;14.31;52.18;95497.25;5043736;28;20448;-66
2022/10/09 03:23:40;;;;;;;0.20;0.20;;;;;;;14.47;51.61;95501.47;5037860;28;20452;-68
2022/10/09 03:26:11;;;;;;;0.57;0.57;;;;;;;14.89;51.25;95498.53;5030917;28;20988;-69
2022/10/09 03:28:41;;;;;;;0.10;0.10;;;;;;;15.02;50.04;95501.41;5029973;28;20513;-64
2022/10/09 03:31:09;;;;;;;0.40;0.40;;;;;;;15.07;49.67;95498.72;5040248;28;20969;-69
2022/10/09 03:33:53;;;;;;;0.20;0.20;;;;;;;15.11;50.14;95497.16;5029734;28;20447;-62
2022/10/09 03:36:19;;;;;;;0.67;0.53;;;;;;;15.03;50.01;95494.28;5043310;28;20452;-66
2022/10/09 03:38:46;;;;;;;0.77;0.77;;;;;;;15.19;49.74;95501.88;5039522;28;21054;-67
2022/10/09 03:41:13;;;;;;;0.83;0.83;;;;;;;15.19;49.16;95491.31;5042851;28;20451;-67
2022/10/09 03:43:40;;;;;;;0.20;0.20;;;;;;;15.16;49.53;95501.63;5037861;28;20446;-69
2022/10/09 03:46:07;;;;;;;0.50;0.50;;;;;;;15.28;48.95;95502.13;5045717;28;20486;-69
2022/10/09 03:48:35;;;;;;;0.57;0.57;;;;;;;15.23;49.19;95495.00;5037316;28;20444;-65
2022/10/09 03:51:02;;;;;;;0.70;0.70;;;;;;;15.30;48.88;95505.28;5029575;28;20979;-65
2022/10/09 03:53:29;;;;;;;0.77;0.77;;;;;;;15.18;49.33;95510.09;5038834;28;20542;-71
2022/10/09 03:55:56;;;;;;;0.40;0.40;;;;;;;15.13;49.29;95504.78;5045822;28;20808;-65
2022/10/09 03:58:23;;;;;;;0.67;0.53;;;;;;;15.16;48.65;95505.03;5040293;28;20838;-65
2022/10/09 04:00:51;;;;;;;0.93;0.77;;;;;;;15.02;49.55;95506.66;5041990;28;20444;-63
2022/10/09 04:03:19;;;;;;;0.53;0.53;;;;;;;14.96;48.71;95489.25;5039465;28;20483;-63
2022/10/09 04:05:46;;;;;;;0.50;0.50;;;;;;;15.17;48.82;95511.91;5027996;28;20497;-70
2022/10/09 04:08:13;;;;;;;0.30;0.30;;;;;;;14.95;48.97;95510.66;5039334;28;20490;-63
2022/10/09 04:10:40;;;;;;;4.20;2.57;;;;;;;14.95;49.61;95503.53;5027737;28;20451;-71
2022/10/09 04:13:07;;;;;;;0.67;0.67;;;;;;;14.83;49.20;95516.22;5038759;28;20529;-68
2022/10/09 04:15:34;;;;;;;2.10;1.70;;;;;;;14.97;49.82;95511.97;5029614;28;20547;-68
2022/10/09 04:18:01;;;;;;;1.93;1.27;;;;;;;14.58;49.94;95513.59;5043132;28;20451;-67
2022/10/09 04:20:28;;;;;;;0.60;0.60;;;;;;;14.85;49.32;95503.53;5035926;28;20450;-65
2022/10/09 04:22:55;;;;;;;1.47;1.37;;;;;;;14.46;50.48;95512.28;5043876;28;20497;-65
2022/10/09 04:25:22;;;;;;;1.90;1.47;;;;;;;14.66;49.72;95514.91;5040971;28;20453;-68
2022/10/09 04:27:48;;;;;;;0.60;0.60;;;;;;;14.90;49.11;95506.19;5034719;28;20534;-68
2022/10/09 04:30:15;;;;;;;0.20;0.20;;;;;;;14.90;48.92;95516.75;5035409;28;20447;-66
2022/10/09 04:32:42;;;;;;;0.70;0.70;;;;;;;14.82;49.03;95514.63;5033999;28;20446;-72
2022/10/09 04:35:10;;;;;;;0.83;0.83;;;;;;;14.96;49.19;95518.28;5035093;28;20546;-69
2022/10/09 04:37:36;;;;;;;1.10;1.03;;;;;;;14.99;48.82;95519.63;5037764;28;20512;-65
2022/10/09 04:40:04;;;;;;;0.70;0.70;;;;;;;14.85;49.53;95524.63;5039503;28;20977;-64
2022/10/09 04:42:30;;;;;;;1.53;1.43;;;;;;;14.74;49.17;95507.28;5033894;28;20505;-66
2022/10/09 04:44:57;;;;;;;1.17;1.07;;;;;;;14.88;48.71;95529.41;5038974;28;20585;-63
2022/10/09 04:47:24;;;;;;;0.50;0.50;;;;;;;14.96;49.10;95528.84;5040832;28;20987;-71
2022/10/09 04:49:51;;;;;;;0.20;0.20;;;;;;;14.82;49.39;95530.47;5044325;28;20449;-70
2022/10/09 04:52:18;;;;;;;0.57;0.57;;;;;;;14.89;49.49;95515.13;5030624;28;20448;-70
2022/10/09 04:54:45;;;;;;;0.47;0.47;;;;;;;14.76;49.88;95530.75;5040156;28;20528;-65
2022/10/09 04:57:11;;;;;;;2.03;1.77;;;;;;;14.65;49.44;95534.44;5037128;28;20443;-66
2022/10/09 04:59:38;;;;;;;0.60;0.60;;;;;;;14.70;49.71;95537.06;5035139;28;20444;-63
2022/10/09 05:02:05;;;;;;;1.60;1.37;;;;;;;14.90;49.59;95529.94;5032530;28;20533;-67
2022/10/09 05:04:32;;;;;;;1.57;1.17;;;;;;;14.71;49.50;95539.44;5039458;28;20447;-69
2022/10/09 05:06:59;;;;;;;1.43;1.33;;;;;;;14.73;49.89;95539.97;5048360;28;20877;-70
2022/10/09 05:09:25;;;;;;;0.97;0.97;;;;;;;14.77;50.16;95532.31;5037952;28;20445;-67
2022/10/09 05:11:52;;;;;;;2.43;1.97;;;;;;;14.77;50.34;95548.16;5048081;28;20513;-68
2022/10/09 05:14:19;;;;;;;0.87;0.87;;;;;;;14.84;49.21;95541.53;5046045;28;20529;-66
2022/10/09 05:16:50;;;;;;;3.17;2.83;;;;;;;14.76;50.03;95541.28;5040570;28;20448;-63
2022/10/09 05:19:38;;;;;;;1.83;1.70;;;;;;;14.71;50.38;95544.72;5039974;28;20527;-68
2022/10/09 05:22:04;;;;;;;0.70;0.70;;;;;;;14.62;50.25;95530.47;5032626;28;20916;-71
2022/10/09 05:24:31;;;;;;;0.37;0.37;;;;;;;14.72;50.25;95546.31;5045177;28;20458;-67
2022/10/09 05:26:58;;;;;;;3.80;2.43;;;;;;;14.89;49.54;95546.81;5041912;28;20541;-67
2022/10/09 05:29:25;;;;;;;1.70;1.27;;;;;;;14.95;49.71;95555.50;5041459;28;20876;-67
2022/10/09 05:31:52;;;;;;;0.87;0.87;;;;;;;14.94;49.58;95538.88;5038881;28;20446;-68
2022/10/09 05:34:19;;;;;;;1.33;1.27;;;;;;;15.06;50.18;95549.97;5039399;28;20476;-66
2022/10/09 05:36:46;;;;;;;1.50;1.40;;;;;;;15.30;49.83;95546.72;5031256;28;20446;-70
2022/10/09 05:39:12;;;;;;;1.43;1.30;;;;;;;15.12;49.51;95554.19;5035872;28;20448;-64
2022/10/09 05:41:39;;;;;;;0.70;0.63;;;;;;;15.15;49.42;95551.00;5039537;28;21161;-67
2022/10/09 05:44:07;;;;;;;2.20;1.23;;;;;;;15.41;49.35;95561.50;5039563;28;21066;-68
2022/10/09 05:46:34;;;;;;;2.63;1.47;;;;;;;15.18;49.21;95561.00;5040552;28;20896;-65
2022/10/09 05:49:06;;;;;;;0.20;0.20;;;;;;;14.10;51.45;95580.75;5039323;28;20549;-68
2022/10/09 05:51:36;;;;;;;0.63;0.63;;;;;;;14.46;50.85;95573.72;5030884;28;20471;-69
2022/10/09 05:54:04;;;;;;;0.57;0.50;;;;;;;13.90;52.07;95569.38;5043643;28;20834;-66
2022/10/09 05:56:36;;;;;;;0.30;0.30;;;;;;;14.82;50.48;95546.28;5036781;28;20488;-66
2022/10/09 05:59:18;;;;;;;1.60;1.13;;;;;;;15.00;49.77;95574.78;5036440;28;20976;-70
2022/10/09 06:01:50;;;;;;;0.10;0.10;;;;;;;15.19;49.50;95567.88;5038122;28;20452;-68
2022/10/09 06:04:20;;;;;;;0.57;0.57;;;;;;;15.31;49.68;95577.38;5034946;28;20478;-68
2022/10/09 06:06:47;;;;;;;0.20;0.20;;;;;;;14.33;51.75;95590.06;5028208;28;20547;-71
2022/10/09 06:09:16;;;;;;;0.60;0.60;;;;;;;13.82;53.29;95590.94;5033666;28;20455;-71
2022/10/09 06:11:44;;;;;;;0.57;0.57;;;;;;;14.03;52.91;95600.50;5035831;28;20557;-70
2022/10/09 06:14:12;;;;;;;0.20;0.20;;;;;;;14.63;52.61;95590.09;5034640;28;20514;-65
2022/10/09 06:16:41;;;;;;;0.40;0.40;;;;;;;14.64;53.87;95599.59;5035753;28;20459;-63
2022/10/09 06:19:13;;;;;;;0.50;0.50;;;;;;;14.87;54.72;95591.13;5036600;28;20506;-65
2022/10/09 06:21:40;;;;;;;0.40;0.40;;;;;;;15.00;53.51;95601.16;5033079;28;20451;-69
2022/10/09 06:24:09;;;;;;;0.90;0.90;;;;;;;15.55;51.78;95596.84;5039721;28;20548;-67
2022/10/09 06:26:36;;;;;;;1.70;1.60;;;;;;;15.36;51.62;95598.47;5031585;28;20456;-66
2022/10/09 06:29:03;;;;;;;1.13;1.07;;;;;;;14.90;53.57;95595.91;5044442;28;20439;-69
2022/10/09 06:31:32;;;;;;;2.10;1.30;;;;;;;15.79;51.13;95603.91;5037711;28;20531;-69
2022/10/09 06:34:00;;;;;;;0.63;0.63;;;;;;;16.17;50.11;95605.06;5044500;28;21068;-68
2022/10/09 06:36:30;;;;;;;5.10;2.23;;;;;;;15.72;52.25;95600.78;5035581;28;20491;-65
2022/10/09 06:38:59;;;;;;;3.53;2.60;;;;;;;16.39;51.39;95602.81;5043663;28;20446;-70
2022/10/09 06:41:27;;;;;;;1.17;1.07;;;;;;;16.66;49.93;95605.84;5042063;28;20466;-69
2022/10/09 06:43:56;;;;;;;2.47;1.67;;;;;;;15.99;51.94;95605.69;5040438;28;21102;-70
2022/10/09 06:46:25;;;;;;;1.30;1.20;;;;;;;16.45;50.54;95612.31;5044219;28;20824;-67
2022/10/09 06:48:52;;;;;;;0.60;0.60;;;;;;;16.91;49.43;95610.97;5042416;28;20447;-68
2022/10/09 06:51:21;;;;;;;0.70;0.70;;;;;;;16.01;51.05;95616.78;5034526;28;20451;-68
2022/10/09 06:53:53;;;;;;;0.40;0.40;;;;;;;16.57;49.39;95610.13;5034965;28;21056;-68
2022/10/09 06:56:22;;;;;;;2.33;1.27;;;;;;;16.37;48.88;95610.22;5049156;28;20470;-68
2022/10/09 06:58:50;;;;;;;2.37;2.17;;;;;;;16.82;49.32;95607.28;5044377;28;20450;-67
2022/10/09 07:01:31;;;;;;;2.83;2.10;;;;;;;17.36;48.78;95606.31;5039992;28;20658;-66
2022/10/09 07:04:01;;;;;;;1.73;1.63;;;;;;;17.59;48.54;95605.59;5034394;28;21005;-67
2022/10/09 07:06:30;;;;;;;0.20;0.20;;;;;;;17.85;46.99;95609.50;5035889;28;20436;-67
2022/10/09 07:08:59;;;;;;;3.00;1.63;;;;;;;17.82;47.27;95599.47;5045638;28;20439;-71
2022/10/09 07:11:32;;;;;;;0.30;0.30;;;;;;;17.29;48.95;95605.84;5035103;28;20451;-73
2022/10/09 07:14:01;;;;;;;1.00;0.93;;;;;;;17.99;48.05;95605.13;5032497;28;20483;-64
2022/10/09 07:16:31;;;;;;;4.73;1.57;;;;;;;18.01;47.32;95602.97;5048659;28;20489;-67
2022/10/09 07:19:00;;;;;;;0.70;0.70;;;;;;;17.28;49.25;95613.00;5048366;28;20443;-67
2022/10/09 07:21:26;;;;;;;1.60;1.37;;;;;;;17.53;49.56;95606.69;5043641;28;20462;-65
2022/10/09 07:23:53;;;;;;;1.23;1.17;;;;;;;17.87;48.20;95612.66;5040196;28;20558;-66
2022/10/09 07:26:24;;;;;;;0.43;0.43;;;;;;;18.09;48.44;95615.59;5039040;28;20485;-74
2022/10/09 07:28:51;;;;;;;0.63;0.60;;;;;;;17.54;49.28;95619.66;5042459;28;20468;-68
2022/10/09 07:31:19;;;;;;;1.80;1.70;;;;;;;18.06;47.85;95616.16;5035038;28;21135;-70
2022/10/09 07:33:47;;;;;;;0.50;0.50;;;;;;;18.40;47.13;95619.41;5032508;28;20479;-67
2022/10/09 07:36:14;;;;;;;2.47;2.07;;;;;;;18.60;45.87;95621.81;5040410;28;21073;-69
2022/10/09 07:38:41;;;;;;;3.03;2.27;;;;;;;18.81;45.82;95617.78;5038825;28;20538;-71
2022/10/09 07:41:11;;;;;;;1.07;1.07;;;;;;;18.97;45.46;95616.47;5032863;28;20470;-65
2022/10/09 07:43:40;;;;;;;2.33;1.40;;;;;;;18.79;45.90;95614.66;5031618;28;20529;-70
2022/10/09 07:46:11;;;;;;;1.43;1.33;;;;;;;18.80;45.82;95626.84;5039538;28;20460;-65
2022/10/09 07:48:39;;;;;;;5.07;1.60;;;;;;;18.32;47.09;95621.94;5030707;28;20456;-67
2022/10/09 07:51:09;;;;;;;14.60;4.10;;;;;;;18.72;45.40;95627.47;5036053;28;20447;-69
2022/10/09 07:53:37;;;;;;;1.50;1.40;;;;;;;18.84;45.89;95627.03;5028857;28;20454;-68
2022/10/09 07:56:05;;;;;;;0.67;0.67;;;;;;;18.88;46.12;95618.22;5037609;28;20465;-67
2022/10/09 07:58:32;;;;;;;2.97;2.13;;;;;;;18.96;45.13;95619.41;5028130;28;20527;-70
2022/10/09 08:01:04;;;;;;;1.53;1.30;;;;;;;19.17;45.26;95618.81;5039829;28;20530;-67
2022/10/09 08:03:31;;;;;;;1.30;1.00;;;;;;;19.64;44.33;95609.75;5031097;28;21009;-69
2022/10/09 08:05:58;;;;;;;3.07;2.40;;;;;;;20.26;43.02;95615.47;5041391;28;20475;-68
2022/10/09 08:08:25;;;;;;;0.87;0.87;;;;;;;19.46;44.43;95607.16;5026585;28;20523;-70
2022/10/09 08:10:51;;;;;;;1.60;1.50;;;;;;;20.33;43.30;95599.91;5027651;28;20546;-68
2022/10/09 08:13:18;;;;;;;1.77;1.67;;;;;;;19.99;43.95;95608.28;5026376;28;21153;-69
2022/10/09 08:15:45;;;;;;;1.47;1.00;;;;;;;20.08;43.89;95593.19;5027784;28;20479;-66
2022/10/09 08:18:12;;;;;;;1.33;1.00;;;;;;;19.93;44.23;95601.47;5027046;28;20974;-70
2022/10/09 08:20:39;;;;;;;1.10;1.10;;;;;;;20.05;43.89;95593.78;5027379;28;20439;-65
2022/10/09 08:23:06;;;;;;;2.10;1.67;;;;;;;20.32;43.42;95601.75;5027290;28;20515;-66
2022/10/09 08:25:37;;;;;;;0.73;0.73;;;;;;;20.12;44.10;95599.50;5027142;28;20439;-65
2022/10/09 08:28:04;;;;;;;0.60;0.60;;;;;;;20.39;44.21;95588.81;5029096;28;21173;-65
2022/10/09 08:30:31;;;;;;;1.20;1.10;;;;;;;20.26;44.42;95597.63;5035119;28;20468;-66
2022/10/09 08:32:57;;;;;;;1.80;1.20;;;;;;;20.91;42.80;95590.81;5032409;28;20440;-65
2022/10/09 08:35:24;;;;;;;0.97;0.97;;;;;;;20.98;43.07;95591.16;5032932;28;20446;-65
2022/10/09 08:37:52;;;;;;;2.00;1.80;;;;;;;21.33;41.90;95591.41;5030402;28;20443;-66
2022/10/09 08:40:28;;;;;;;2.87;1.93;;;;;;;21.79;42.29;95589.13;5032665;28;20447;-73
2022/10/09 08:43:06;;;;;;;4.20;1.67;;;;;;;21.62;41.63;95583.72;5030352;28;21327;-65
2022/10/09 08:45:34;;;;;;;0.53;0.53;;;;;;;22.07;40.18;95579.81;5044836;28;20478;-65
2022/10/09 08:48:05;;;;;;;0.83;0.83;;;;;;;22.00;40.01;95542.13;5030671;28;20480;-65
2022/10/09 08:50:36;;;;;;;1.57;1.47;;;;;;;22.52;40.99;95581.13;5032347;28;20447;-67
2022/10/09 08:53:03;;;;;;;8.53;3.77;;;;;;;22.66;41.18;95576.44;5037951;28;20439;-67
2022/10/09 08:55:35;;;;;;;4.23;3.83;;;;;;;22.78;39.54;95568.59;5031428;28;20193;-69
2022/10/09 08:58:10;;;;;;;0.67;0.67;;;;;;;22.52;41.00;95565.09;5028848;28;21014;-72
2022/10/09 09:00:36;;;;;;;1.67;1.57;;;;;;;23.07;39.05;95559.91;5031317;28;20859;-68
2022/10/09 09:03:25;;;;;;;1.87;1.73;;;;;;;22.78;39.61;95559.78;5028013;28;20498;-64
2022/10/09 09:06:40;;;;;;;0.40;0.40;;;;;;;22.99;38.89;95553.47;5030978;28;20201;-67
2022/10/09 09:09:17;;;;;;;0.80;0.80;;;;;;;23.41;38.68;95554.47;5027293;28;20263;-61
2022/10/09 09:11:47;;;;;;;0.20;0.20;;;;;;;23.35;38.78;95555.00;5030263;28;20568;-62
2022/10/09 09:14:57;;;;;;;0.47;0.47;;;;;;;23.25;39.53;95549.97;5029453;28;20288;-63
2022/10/09 09:17:38;;;;;;;0.70;0.70;;;;;;;23.72;38.42;95543.53;5029833;28;20204;-62
2022/10/09 09:20:15;;;;;;;0.80;0.80;;;;;;;23.69;38.71;95536.13;5035269;28;20204;-62
2022/10/09 09:22:47;;;;;;;1.70;1.60;;;;;;;23.65;39.01;95549.34;5029899;28;20282;-63
2022/10/09 09:25:44;;;;;;;0.20;0.20;;;;;;;23.57;36.67;95549.41;5032995;28;20290;-63
2022/10/09 09:28:21;;;;;;;0.63;0.63;;;;;;;23.96;36.10;95539.13;5030145;28;20202;-64
2022/10/09 09:31:21;;;;;;;0.33;0.33;;;;;;;23.43;36.54;95540.81;5031878;28;20585;-64
2022/10/09 09:34:10;;;;;;;0.27;0.27;;;;;;;23.75;36.75;95537.50;5029375;28;20197;-65
2022/10/09 09:36:43;;;;;;;0.30;0.30;;;;;;;23.98;37.06;95542.28;5031464;28;20909;-64
2022/10/09 09:39:12;;;;;;;0.67;0.67;;;;;;;24.22;36.31;95536.31;5029467;28;20198;-64
2022/10/09 09:42:08;;;;;;;0.33;0.33;;;;;;;;;;5030517;28;20311;-63
2022/10/09 09:44:57;;;;;;;0.53;0.53;;;;;;;24.22;35.48;95536.31;5029180;28;20220;-64
2022/10/09 09:47:48;;;;;;;0.77;0.77;;;;;;;23.95;35.18;95536.78;5028983;28;20706;-62
2022/10/09 09:50:15;;;;;;;0.10;0.10;;;;;;;23.68;37.60;95548.72;5030005;28;20235;-64
2022/10/09 09:53:34;;;;;;;1.50;1.13;;;;;;;24.22;36.00;95555.06;5028972;28;20208;-63
2022/10/09 09:56:01;;;;;;;0.87;0.83;;;;;;;24.41;34.91;95542.03;5031419;28;20201;-62
2022/10/09 09:58:50;;;;;;;2.73;2.53;;;;;;;24.37;36.32;95538.44;5029220;28;20189;-62
2022/10/09 10:01:23;;;;;;;0.67;0.57;;;;;;;24.85;35.35;95544.03;5028393;28;20229;-66
2022/10/09 10:03:52;;;;;;;0.63;0.63;;;;;;;24.43;34.60;95541.69;5028713;28;20224;-61
2022/10/09 10:06:24;;;;;;;1.90;1.63;;;;;;;24.27;34.96;95536.13;5031341;28;20240;-65
2022/10/09 10:09:18;;;;;;;0.47;0.47;;;;;;;23.54;35.23;95531.34;5028674;28;20255;-63
2022/10/09 10:12:15;;;;;;;1.73;1.57;;;;;;;23.32;34.55;95552.97;5031885;28;20664;-60
2022/10/09 10:14:49;;;;;;;1.53;1.40;;;;;;;24.12;35.18;95531.38;5029326;28;20243;-63
2022/10/09 10:17:27;;;;;;;1.50;1.37;;;;;;;24.76;34.39;95535.28;5033484;28;20185;-60
2022/10/09 10:19:54;;;;;;;0.30;0.30;;;;;;;24.74;34.45;95542.88;5027214;28;20201;-62
2022/10/09 10:22:23;;;;;;;0.40;0.33;;;;;;;24.82;35.17;95539.34;5029406;28;20193;-62
2022/10/09 10:24:53;;;;;;;0.43;0.43;;;;;;;24.33;34.76;95537.50;5027233;28;20221;-63
2022/10/09 10:27:34;;;;;;;1.07;0.60;;;;;;;25.16;34.51;95532.88;5042809;28;20212;-63
2022/10/09 10:30:05;;;;;;;1.40;0.93;;;;;;;25.71;33.02;95537.78;5036516;28;20853;-62
2022/10/09 10:32:42;;;;;;;0.57;0.57;;;;;;;25.13;33.36;95533.50;5031070;28;20194;-62
2022/10/09 10:35:15;;;;;;;1.83;1.03;;;;;;;25.59;33.46;95529.72;5045918;28;20206;-62
2022/10/09 10:37:46;;;;;;;0.43;0.40;;;;;;;25.36;32.47;95532.00;5046412;28;20192;-62
2022/10/09 10:40:33;;;;;;;0.30;0.30;;;;;;;25.42;33.00;95524.56;5030203;28;20311;-62
2022/10/09 10:43:09;;;;;;;0.57;0.57;;;;;;;25.27;33.50;95522.50;5036233;28;20211;-61
2022/10/09 10:46:00;;;;;;;0.60;0.60;;;;;;;25.28;33.05;95514.09;5036006;28;20278;-64
2022/10/09 10:48:32;;;;;;;0.50;0.50;;;;;;;25.53;32.90;95514.97;5049729;28;20200;-62
2022/10/09 10:51:23;;;;;;;0.50;0.40;;;;;;;24.98;31.39;95516.16;5032562;28;20203;-64
2022/10/09 10:54:29;;;;;;;0.40;0.40;;;;;;;24.74;31.35;95516.06;5017403;28;20234;-62
2022/10/09 10:57:05;;;;;;;1.30;0.83;;;;;;;25.06;31.58;95501.88;5032167;28;20199;-61
2022/10/09 10:59:53;;;;;;;0.27;0.27;;;;;;;24.63;31.59;95506.84;5040576;28;20201;-60
2022/10/09 11:02:32;;;;;;;0.87;0.50;;;;;;;24.42;31.62;95492.69;5047704;28;20223;-62
2022/10/09 11:05:16;;;;;;;1.60;0.40;;;;;;;24.96;30.93;95483.53;5042825;28;20296;-61
2022/10/09 11:08:01;;;;;;;0.50;0.50;;;;;;;25.39;31.31;95480.38;5042737;28;20229;-61
2022/10/09 11:10:43;;;;;;;0.47;0.47;;;;;;;25.95;31.37;95490.22;5038213;28;20196;-62
2022/10/09 11:13:32;;;;;;;1.30;0.97;;;;;;;25.41;30.98;95474.69;5052784;28;20643;-61
2022/10/09 11:16:25;;;;;;;1.60;1.03;;;;;;;25.72;31.18;95477.59;5037108;28;20215;-61
2022/10/09 11:19:04;;;;;;;1.00;0.97;;;;;;;25.60;31.24;95478.38;5037053;28;20209;-62
2022/10/09 11:21:51;;;;;;;0.40;0.40;;;;;;;25.60;31.51;95472.25;5035520;28;20212;-62
2022/10/09 11:24:30;;;;;;;2.57;0.97;;;;;;;25.89;30.44;95475.44;5031082;28;20615;-64
2022/10/09 11:27:04;;;;;;;0.30;0.30;;;;;;;26.31;30.31;95464.44;5039352;28;20869;-61
2022/10/09 11:30:00;;;;;;;0.40;0.40;;;;;;;25.86;30.35;95464.59;5030853;28;20197;-62
2022/10/09 11:32:39;;;;;;;0.50;0.50;;;;;;;26.88;30.70;95452.22;5037258;28;20212;-66
2022/10/09 11:35:21;;;;;;;0.47;0.47;;;;;;;27.08;29.47;95441.56;5045339;28;20200;-60
2022/10/09 11:38:11;;;;;;;0.30;0.30;;;;;;;27.18;29.75;95454.50;5039583;28;20212;-60
2022/10/09 11:40:41;;;;;;;10.13;0.87;;;;;;;27.32;30.29;95446.78;5042145;28;20573;-63
2022/10/09 11:43:28;;;;;;;0.80;0.80;;;;;;;27.54;30.20;95440.78;5047845;28;20694;-62
2022/10/09 11:46:38;;;;;;;0.33;0.33;;;;;;;27.18;30.64;95432.97;5035449;28;20235;-63
2022/10/09 11:49:23;;;;;;;0.60;0.60;;;;;;;27.83;29.30;95426.84;5028427;28;20205;-62
2022/10/09 11:51:59;;;;;;;0.57;0.57;;;;;;;28.44;28.88;95427.78;5042667;28;20672;-63
2022/10/09 11:54:27;;;;;;;1.77;1.40;;;;;;;28.43;27.89;95428.16;5030936;28;20204;-62
2022/10/09 11:56:59;;;;;;;0.43;0.43;;;;;;;28.19;28.70;95420.34;5037799;28;20578;-62
2022/10/09 11:59:35;;;;;;;0.77;0.77;;;;;;;28.11;28.16;95414.03;5037119;28;20192;-67